sensor_id;sensor_type;location;lat;lon;timestamp;temperature;humidity
8408;DHT22;4241;48.452;9.216;2022-07-05T00:00:42;16.80;99.90
8408;DHT22;4241;48.452;9.216;2022-07-05T00:03:09;16.80;99.90
8408;DHT22;4241;48.452;9.216;2022-07-05T00:05:37;16.90;99.90
8408;DHT22;4241;48.452;9.216;2022-07-05T00:08:05;17.00;99.90
8408;DHT22;4241;48.452;9.216;2022-07-05T00:10:32;17.00;99.90
8408;DHT22;4241;48.452;9.216;2022-07-05T00:12:59;16.90;99.90
8408;DHT22;4241;48.452;9.216;2022-07-05T00:15:27;16.60;99.90
8408;DHT22;4241;48.452;9.216;2022-07-05T00:17:53;16.50;99.90
8408;DHT22;4241;48.452;9.216;2022-07-05T00:20:20;16.60;99.90
8408;DHT22;4241;48.452;9.216;2022-07-05T00:22:49;16.60;99.90
8408;DHT22;4241;48.452;9.216;2022-07-05T00:25:16;16.60;99.90
8408;DHT22;4241;48.452;9.216;2022-07-05T00:27:43;16.60;99.90
8408;DHT22;4241;48.452;9.216;2022-07-05T00:30:11;16.50;99.90
8408;DHT22;4241;48.452;9.216;2022-07-05T00:32:38;16.70;99.90
8408;DHT22;4241;48.452;9.216;2022-07-05T00:35:05;16.60;99.90
8408;DHT22;4241;48.452;9.216;2022-07-05T00:37:33;16.50;99.90
8408;DHT22;4241;48.452;9.216;2022-07-05T00:40:01;16.60;99.90
8408;DHT22;4241;48.452;9.216;2022-07-05T00:42:28;16.70;99.90
8408;DHT22;4241;48.452;9.216;2022-07-05T00:44:55;16.50;99.90
8408;DHT22;4241;48.452;9.216;2022-07-05T00:47:22;16.50;99.90
8408;DHT22;4241;48.452;9.216;2022-07-05T00:49:49;16.60;99.90
8408;DHT22;4241;48.452;9.216;2022-07-05T00:52:16;16.50;99.90
8408;DHT22;4241;48.452;9.216;2022-07-05T00:54:43;16.50;99.90
8408;DHT22;4241;48.452;9.216;2022-07-05T00:57:11;16.30;99.90
8408;DHT22;4241;48.452;9.216;2022-07-05T00:59:38;16.30;99.90
8408;DHT22;4241;48.452;9.216;2022-07-05T01:02:05;16.00;99.90
8408;DHT22;4241;48.452;9.216;2022-07-05T01:04:32;16.10;99.90
8408;DHT22;4241;48.452;9.216;2022-07-05T01:06:59;15.80;99.90
8408;DHT22;4241;48.452;9.216;2022-07-05T01:09:29;16.20;99.90
8408;DHT22;4241;48.452;9.216;2022-07-05T01:11:58;16.10;99.90
8408;DHT22;4241;48.452;9.216;2022-07-05T01:14:26;16.00;99.90
8408;DHT22;4241;48.452;9.216;2022-07-05T01:16:53;16.10;99.90
8408;DHT22;4241;48.452;9.216;2022-07-05T01:19:21;15.90;99.90
8408;DHT22;4241;48.452;9.216;2022-07-05T01:21:49;15.90;99.90
8408;DHT22;4241;48.452;9.216;2022-07-05T01:24:18;15.80;99.90
8408;DHT22;4241;48.452;9.216;2022-07-05T01:26:47;15.90;99.90
8408;DHT22;4241;48.452;9.216;2022-07-05T01:29:14;16.10;99.90
8408;DHT22;4241;48.452;9.216;2022-07-05T01:31:43;15.70;99.90
8408;DHT22;4241;48.452;9.216;2022-07-05T01:34:10;16.00;99.90
8408;DHT22;4241;48.452;9.216;2022-07-05T01:36:37;15.90;99.90
8408;DHT22;4241;48.452;9.216;2022-07-05T01:39:07;15.90;99.90
8408;DHT22;4241;48.452;9.216;2022-07-05T01:41:36;15.70;99.90
8408;DHT22;4241;48.452;9.216;2022-07-05T01:44:03;15.80;99.90
8408;DHT22;4241;48.452;9.216;2022-07-05T01:46:32;15.70;99.90
8408;DHT22;4241;48.452;9.216;2022-07-05T01:49:04;15.70;99.90
8408;DHT22;4241;48.452;9.216;2022-07-05T01:51:34;15.40;99.90
8408;DHT22;4241;48.452;9.216;2022-07-05T01:54:01;15.10;99.90
8408;DHT22;4241;48.452;9.216;2022-07-05T01:56:28;15.40;99.90
8408;DHT22;4241;48.452;9.216;2022-07-05T01:58:57;15.50;99.90
8408;DHT22;4241;48.452;9.216;2022-07-05T02:01:35;15.60;99.90
8408;DHT22;4241;48.452;9.216;2022-07-05T02:04:04;15.70;99.90
8408;DHT22;4241;48.452;9.216;2022-07-05T02:06:31;15.80;99.90
8408;DHT22;4241;48.452;9.216;2022-07-05T02:08:59;15.90;99.90
8408;DHT22;4241;48.452;9.216;2022-07-05T02:11:26;15.60;99.90
8408;DHT22;4241;48.452;9.216;2022-07-05T02:13:53;15.40;99.90
8408;DHT22;4241;48.452;9.216;2022-07-05T02:16:25;15.50;99.90
8408;DHT22;4241;48.452;9.216;2022-07-05T02:18:52;15.50;99.90
8408;DHT22;4241;48.452;9.216;2022-07-05T02:21:19;15.60;99.90
8408;DHT22;4241;48.452;9.216;2022-07-05T02:23:46;15.60;99.90
8408;DHT22;4241;48.452;9.216;2022-07-05T02:26:13;15.50;99.90
8408;DHT22;4241;48.452;9.216;2022-07-05T02:28:40;15.20;99.90
8408;DHT22;4241;48.452;9.216;2022-07-05T02:31:07;15.10;99.90
8408;DHT22;4241;48.452;9.216;2022-07-05T02:33:35;15.10;99.90
8408;DHT22;4241;48.452;9.216;2022-07-05T02:36:06;15.20;99.90
8408;DHT22;4241;48.452;9.216;2022-07-05T02:38:33;15.30;99.90
8408;DHT22;4241;48.452;9.216;2022-07-05T02:41:00;14.90;99.90
8408;DHT22;4241;48.452;9.216;2022-07-05T02:43:27;14.80;99.90
8408;DHT22;4241;48.452;9.216;2022-07-05T02:45:54;14.80;99.90
8408;DHT22;4241;48.452;9.216;2022-07-05T02:48:21;15.00;99.90
8408;DHT22;4241;48.452;9.216;2022-07-05T02:50:49;15.10;99.90
8408;DHT22;4241;48.452;9.216;2022-07-05T02:53:16;15.10;99.90
8408;DHT22;4241;48.452;9.216;2022-07-05T02:55:43;15.10;99.90
8408;DHT22;4241;48.452;9.216;2022-07-05T02:58:10;15.10;99.90
8408;DHT22;4241;48.452;9.216;2022-07-05T03:00:37;15.00;99.90
8408;DHT22;4241;48.452;9.216;2022-07-05T03:03:04;15.00;99.90
8408;DHT22;4241;48.452;9.216;2022-07-05T03:05:30;14.90;99.90
8408;DHT22;4241;48.452;9.216;2022-07-05T03:07:59;15.00;99.90
8408;DHT22;4241;48.452;9.216;2022-07-05T03:10:26;15.00;99.90
8408;DHT22;4241;48.452;9.216;2022-07-05T03:12:53;15.00;99.90
8408;DHT22;4241;48.452;9.216;2022-07-05T03:15:19;15.00;99.90
8408;DHT22;4241;48.452;9.216;2022-07-05T03:17:46;15.10;99.90
8408;DHT22;4241;48.452;9.216;2022-07-05T03:20:13;15.00;99.90
8408;DHT22;4241;48.452;9.216;2022-07-05T03:22:40;15.00;99.90
8408;DHT22;4241;48.452;9.216;2022-07-05T03:25:09;15.10;99.90
8408;DHT22;4241;48.452;9.216;2022-07-05T03:27:36;15.10;99.90
8408;DHT22;4241;48.452;9.216;2022-07-05T03:30:03;15.00;99.90
8408;DHT22;4241;48.452;9.216;2022-07-05T03:32:30;15.00;99.90
8408;DHT22;4241;48.452;9.216;2022-07-05T03:34:57;15.00;99.90
8408;DHT22;4241;48.452;9.216;2022-07-05T03:37:24;14.90;99.90
8408;DHT22;4241;48.452;9.216;2022-07-05T03:39:51;14.90;99.90
8408;DHT22;4241;48.452;9.216;2022-07-05T03:42:19;14.90;99.90
8408;DHT22;4241;48.452;9.216;2022-07-05T03:44:46;15.00;99.90
8408;DHT22;4241;48.452;9.216;2022-07-05T03:47:13;14.80;99.90
8408;DHT22;4241;48.452;9.216;2022-07-05T03:49:40;14.40;99.90
8408;DHT22;4241;48.452;9.216;2022-07-05T03:52:07;14.40;99.90
8408;DHT22;4241;48.452;9.216;2022-07-05T03:54:34;14.40;99.90
8408;DHT22;4241;48.452;9.216;2022-07-05T03:57:01;14.70;99.90
8408;DHT22;4241;48.452;9.216;2022-07-05T03:59:29;14.70;99.90
8408;DHT22;4241;48.452;9.216;2022-07-05T04:01:56;14.80;99.90
8408;DHT22;4241;48.452;9.216;2022-07-05T04:04:23;14.90;99.90
8408;DHT22;4241;48.452;9.216;2022-07-05T04:06:49;14.70;99.90
8408;DHT22;4241;48.452;9.216;2022-07-05T04:09:16;14.70;99.90
8408;DHT22;4241;48.452;9.216;2022-07-05T04:11:43;14.80;99.90
8408;DHT22;4241;48.452;9.216;2022-07-05T04:14:10;15.00;99.90
8408;DHT22;4241;48.452;9.216;2022-07-05T04:16:38;14.80;99.90
8408;DHT22;4241;48.452;9.216;2022-07-05T04:19:05;14.90;99.90
8408;DHT22;4241;48.452;9.216;2022-07-05T04:21:32;14.90;99.90
8408;DHT22;4241;48.452;9.216;2022-07-05T04:23:59;14.80;99.90
8408;DHT22;4241;48.452;9.216;2022-07-05T04:26:25;14.60;99.90
8408;DHT22;4241;48.452;9.216;2022-07-05T04:28:52;14.80;99.90
8408;DHT22;4241;48.452;9.216;2022-07-05T04:31:19;15.00;99.90
8408;DHT22;4241;48.452;9.216;2022-07-05T04:33:47;15.00;99.90
8408;DHT22;4241;48.452;9.216;2022-07-05T04:36:14;14.90;99.90
8408;DHT22;4241;48.452;9.216;2022-07-05T04:38:41;14.60;99.90
8408;DHT22;4241;48.452;9.216;2022-07-05T04:41:08;14.70;99.90
8408;DHT22;4241;48.452;9.216;2022-07-05T04:43:35;14.50;99.90
8408;DHT22;4241;48.452;9.216;2022-07-05T04:46:02;14.70;99.90
8408;DHT22;4241;48.452;9.216;2022-07-05T04:48:28;14.80;99.90
8408;DHT22;4241;48.452;9.216;2022-07-05T04:50:57;14.90;99.90
8408;DHT22;4241;48.452;9.216;2022-07-05T04:53:24;15.00;99.90
8408;DHT22;4241;48.452;9.216;2022-07-05T04:55:51;14.80;99.90
8408;DHT22;4241;48.452;9.216;2022-07-05T04:58:18;14.90;99.90
8408;DHT22;4241;48.452;9.216;2022-07-05T05:00:45;15.10;99.90
8408;DHT22;4241;48.452;9.216;2022-07-05T05:03:12;14.80;99.90
8408;DHT22;4241;48.452;9.216;2022-07-05T05:05:39;15.00;99.90
8408;DHT22;4241;48.452;9.216;2022-07-05T05:08:07;15.20;99.90
8408;DHT22;4241;48.452;9.216;2022-07-05T05:10:34;15.30;99.90
8408;DHT22;4241;48.452;9.216;2022-07-05T05:13:00;15.30;99.90
8408;DHT22;4241;48.452;9.216;2022-07-05T05:15:27;15.30;99.90
8408;DHT22;4241;48.452;9.216;2022-07-05T05:17:54;15.30;99.90
8408;DHT22;4241;48.452;9.216;2022-07-05T05:20:21;15.20;99.90
8408;DHT22;4241;48.452;9.216;2022-07-05T05:22:48;15.30;99.90
8408;DHT22;4241;48.452;9.216;2022-07-05T05:25:16;15.40;99.90
8408;DHT22;4241;48.452;9.216;2022-07-05T05:27:44;15.40;99.90
8408;DHT22;4241;48.452;9.216;2022-07-05T05:30:12;15.50;99.90
8408;DHT22;4241;48.452;9.216;2022-07-05T05:32:39;15.50;99.90
8408;DHT22;4241;48.452;9.216;2022-07-05T05:35:07;15.60;99.90
8408;DHT22;4241;48.452;9.216;2022-07-05T05:37:45;15.60;99.90
8408;DHT22;4241;48.452;9.216;2022-07-05T05:40:13;15.70;99.90
8408;DHT22;4241;48.452;9.216;2022-07-05T05:42:41;15.80;99.90
8408;DHT22;4241;48.452;9.216;2022-07-05T05:45:09;15.90;99.90
8408;DHT22;4241;48.452;9.216;2022-07-05T05:47:43;16.00;99.90
8408;DHT22;4241;48.452;9.216;2022-07-05T05:50:10;16.10;99.90
8408;DHT22;4241;48.452;9.216;2022-07-05T05:52:37;16.30;99.90
8408;DHT22;4241;48.452;9.216;2022-07-05T05:55:05;16.30;99.90
8408;DHT22;4241;48.452;9.216;2022-07-05T05:57:33;16.40;99.90
8408;DHT22;4241;48.452;9.216;2022-07-05T06:00:03;16.60;99.90
8408;DHT22;4241;48.452;9.216;2022-07-05T06:02:31;15.20;99.90
8408;DHT22;4241;48.452;9.216;2022-07-05T06:04:57;17.00;99.90
8408;DHT22;4241;48.452;9.216;2022-07-05T06:07:24;17.00;99.90
8408;DHT22;4241;48.452;9.216;2022-07-05T06:09:51;17.10;99.90
8408;DHT22;4241;48.452;9.216;2022-07-05T06:12:18;17.20;99.90
8408;DHT22;4241;48.452;9.216;2022-07-05T06:14:45;17.30;99.90
8408;DHT22;4241;48.452;9.216;2022-07-05T06:17:13;17.40;99.90
8408;DHT22;4241;48.452;9.216;2022-07-05T06:19:40;17.30;99.90
8408;DHT22;4241;48.452;9.216;2022-07-05T06:22:07;17.80;99.90
8408;DHT22;4241;48.452;9.216;2022-07-05T06:24:34;18.10;99.90
8408;DHT22;4241;48.452;9.216;2022-07-05T06:27:01;17.90;99.90
8408;DHT22;4241;48.452;9.216;2022-07-05T06:29:28;18.10;99.90
8408;DHT22;4241;48.452;9.216;2022-07-05T06:31:54;18.30;99.90
8408;DHT22;4241;48.452;9.216;2022-07-05T06:34:23;18.20;99.90
8408;DHT22;4241;48.452;9.216;2022-07-05T06:36:50;18.20;99.90
8408;DHT22;4241;48.452;9.216;2022-07-05T06:39:16;18.50;99.90
8408;DHT22;4241;48.452;9.216;2022-07-05T06:41:43;18.60;99.90
8408;DHT22;4241;48.452;9.216;2022-07-05T06:44:10;18.80;99.90
8408;DHT22;4241;48.452;9.216;2022-07-05T06:46:37;19.10;99.90
8408;DHT22;4241;48.452;9.216;2022-07-05T06:49:04;19.10;99.90
8408;DHT22;4241;48.452;9.216;2022-07-05T06:51:32;19.20;99.90
8408;DHT22;4241;48.452;9.216;2022-07-05T06:53:59;19.50;99.90
8408;DHT22;4241;48.452;9.216;2022-07-05T06:56:26;19.50;99.90
8408;DHT22;4241;48.452;9.216;2022-07-05T06:58:53;19.60;99.90
8408;DHT22;4241;48.452;9.216;2022-07-05T07:01:19;19.70;99.90
8408;DHT22;4241;48.452;9.216;2022-07-05T07:03:46;19.70;99.90
8408;DHT22;4241;48.452;9.216;2022-07-05T07:06:13;20.00;99.90
8408;DHT22;4241;48.452;9.216;2022-07-05T07:08:42;20.30;99.90
8408;DHT22;4241;48.452;9.216;2022-07-05T07:11:27;20.50;99.90
8408;DHT22;4241;48.452;9.216;2022-07-05T07:13:54;20.60;99.90
8408;DHT22;4241;48.452;9.216;2022-07-05T07:16:21;20.90;99.90
8408;DHT22;4241;48.452;9.216;2022-07-05T07:18:48;21.00;99.90
8408;DHT22;4241;48.452;9.216;2022-07-05T07:21:15;21.10;99.90
8408;DHT22;4241;48.452;9.216;2022-07-05T07:23:43;21.10;99.90
8408;DHT22;4241;48.452;9.216;2022-07-05T07:26:10;21.40;99.90
8408;DHT22;4241;48.452;9.216;2022-07-05T07:28:39;21.30;99.90
8408;DHT22;4241;48.452;9.216;2022-07-05T07:31:06;21.40;99.90
8408;DHT22;4241;48.452;9.216;2022-07-05T07:33:33;21.40;99.90
8408;DHT22;4241;48.452;9.216;2022-07-05T07:36:00;21.60;99.90
8408;DHT22;4241;48.452;9.216;2022-07-05T07:38:27;21.60;99.90
8408;DHT22;4241;48.452;9.216;2022-07-05T07:40:55;21.60;99.90
8408;DHT22;4241;48.452;9.216;2022-07-05T07:43:22;21.70;99.90
8408;DHT22;4241;48.452;9.216;2022-07-05T07:45:49;21.50;99.90
8408;DHT22;4241;48.452;9.216;2022-07-05T07:48:16;21.70;99.90
8408;DHT22;4241;48.452;9.216;2022-07-05T07:50:43;21.70;99.90
8408;DHT22;4241;48.452;9.216;2022-07-05T07:53:10;22.00;99.90
8408;DHT22;4241;48.452;9.216;2022-07-05T07:55:36;22.00;99.90
8408;DHT22;4241;48.452;9.216;2022-07-05T07:58:05;22.30;99.90
8408;DHT22;4241;48.452;9.216;2022-07-05T08:00:32;22.30;99.90
8408;DHT22;4241;48.452;9.216;2022-07-05T08:02:59;22.50;99.90
8408;DHT22;4241;48.452;9.216;2022-07-05T08:05:26;22.30;99.90
8408;DHT22;4241;48.452;9.216;2022-07-05T08:07:53;22.70;99.90
8408;DHT22;4241;48.452;9.216;2022-07-05T08:10:20;22.80;99.90
8408;DHT22;4241;48.452;9.216;2022-07-05T08:12:47;22.90;99.90
8408;DHT22;4241;48.452;9.216;2022-07-05T08:15:15;23.40;99.90
8408;DHT22;4241;48.452;9.216;2022-07-05T08:17:42;23.70;99.90
8408;DHT22;4241;48.452;9.216;2022-07-05T08:20:29;23.00;99.90
8408;DHT22;4241;48.452;9.216;2022-07-05T08:23:13;23.30;99.90
8408;DHT22;4241;48.452;9.216;2022-07-05T08:25:40;23.30;99.90
8408;DHT22;4241;48.452;9.216;2022-07-05T08:28:06;24.00;99.90
8408;DHT22;4241;48.452;9.216;2022-07-05T08:30:35;24.30;99.90
8408;DHT22;4241;48.452;9.216;2022-07-05T08:33:01;24.30;99.90
8408;DHT22;4241;48.452;9.216;2022-07-05T08:35:28;24.40;99.90
8408;DHT22;4241;48.452;9.216;2022-07-05T08:37:55;24.30;99.90
8408;DHT22;4241;48.452;9.216;2022-07-05T08:40:25;24.20;99.90
8408;DHT22;4241;48.452;9.216;2022-07-05T08:42:55;24.90;99.90
8408;DHT22;4241;48.452;9.216;2022-07-05T08:45:24;24.50;99.90
8408;DHT22;4241;48.452;9.216;2022-07-05T08:47:55;24.60;99.90
8408;DHT22;4241;48.452;9.216;2022-07-05T08:50:26;24.80;99.90
8408;DHT22;4241;48.452;9.216;2022-07-05T08:52:53;24.70;99.90
8408;DHT22;4241;48.452;9.216;2022-07-05T08:55:21;24.90;99.90
8408;DHT22;4241;48.452;9.216;2022-07-05T08:57:49;24.80;99.90
8408;DHT22;4241;48.452;9.216;2022-07-05T09:00:16;25.10;99.90
8408;DHT22;4241;48.452;9.216;2022-07-05T09:02:43;24.70;99.90
8408;DHT22;4241;48.452;9.216;2022-07-05T09:05:12;25.10;99.90
8408;DHT22;4241;48.452;9.216;2022-07-05T09:07:47;25.20;99.90
8408;DHT22;4241;48.452;9.216;2022-07-05T09:10:17;25.20;99.90
8408;DHT22;4241;48.452;9.216;2022-07-05T09:12:45;25.20;99.90
8408;DHT22;4241;48.452;9.216;2022-07-05T09:15:12;25.40;99.90
8408;DHT22;4241;48.452;9.216;2022-07-05T09:17:45;25.60;99.90
8408;DHT22;4241;48.452;9.216;2022-07-05T09:20:14;25.60;99.90
8408;DHT22;4241;48.452;9.216;2022-07-05T09:22:46;25.50;99.90
8408;DHT22;4241;48.452;9.216;2022-07-05T09:25:16;25.60;99.90
8408;DHT22;4241;48.452;9.216;2022-07-05T09:27:50;25.70;99.90
8408;DHT22;4241;48.452;9.216;2022-07-05T09:30:31;25.80;99.90
8408;DHT22;4241;48.452;9.216;2022-07-05T09:33:00;26.00;99.90
8408;DHT22;4241;48.452;9.216;2022-07-05T09:35:29;26.00;99.90
8408;DHT22;4241;48.452;9.216;2022-07-05T09:37:56;26.10;99.90
8408;DHT22;4241;48.452;9.216;2022-07-05T09:40:23;26.10;99.90
8408;DHT22;4241;48.452;9.216;2022-07-05T09:42:49;25.40;99.90
8408;DHT22;4241;48.452;9.216;2022-07-05T09:45:22;25.80;99.90
8408;DHT22;4241;48.452;9.216;2022-07-05T09:47:49;26.10;99.90
8408;DHT22;4241;48.452;9.216;2022-07-05T09:50:34;26.40;97.90
8408;DHT22;4241;48.452;9.216;2022-07-05T09:53:01;26.50;97.50
8408;DHT22;4241;48.452;9.216;2022-07-05T09:55:27;26.60;99.70
8408;DHT22;4241;48.452;9.216;2022-07-05T09:57:54;26.70;98.60
8408;DHT22;4241;48.452;9.216;2022-07-05T10:00:22;26.90;98.50
8408;DHT22;4241;48.452;9.216;2022-07-05T10:02:51;26.40;97.80
8408;DHT22;4241;48.452;9.216;2022-07-05T10:05:19;26.30;99.90
8408;DHT22;4241;48.452;9.216;2022-07-05T10:07:49;26.30;97.60
8408;DHT22;4241;48.452;9.216;2022-07-05T10:10:17;26.80;94.60
8408;DHT22;4241;48.452;9.216;2022-07-05T10:12:45;27.10;92.10
8408;DHT22;4241;48.452;9.216;2022-07-05T10:15:15;26.90;88.50
8408;DHT22;4241;48.452;9.216;2022-07-05T10:17:44;26.90;80.30
8408;DHT22;4241;48.452;9.216;2022-07-05T10:20:17;26.80;93.00
8408;DHT22;4241;48.452;9.216;2022-07-05T10:22:45;26.60;64.20
8408;DHT22;4241;48.452;9.216;2022-07-05T10:25:16;26.50;69.30
8408;DHT22;4241;48.452;9.216;2022-07-05T10:27:44;27.10;74.10
8408;DHT22;4241;48.452;9.216;2022-07-05T10:30:11;28.10;83.70
8408;DHT22;4241;48.452;9.216;2022-07-05T10:32:39;27.90;80.20
8408;DHT22;4241;48.452;9.216;2022-07-05T10:35:07;27.60;59.80
8408;DHT22;4241;48.452;9.216;2022-07-05T10:37:35;27.50;61.20
8408;DHT22;4241;48.452;9.216;2022-07-05T10:40:04;27.80;59.10
8408;DHT22;4241;48.452;9.216;2022-07-05T10:42:36;27.60;65.50
8408;DHT22;4241;48.452;9.216;2022-07-05T10:45:23;27.80;70.90
8408;DHT22;4241;48.452;9.216;2022-07-05T10:50:57;28.30;69.20
8408;DHT22;4241;48.452;9.216;2022-07-05T10:53:25;28.20;70.10
8408;DHT22;4241;48.452;9.216;2022-07-05T10:55:55;27.90;68.70
8408;DHT22;4241;48.452;9.216;2022-07-05T10:58:26;28.00;76.30
8408;DHT22;4241;48.452;9.216;2022-07-05T11:04:28;28.10;69.70
8408;DHT22;4241;48.452;9.216;2022-07-05T11:07:01;28.50;71.90
8408;DHT22;4241;48.452;9.216;2022-07-05T11:09:28;28.30;68.40
8408;DHT22;4241;48.452;9.216;2022-07-05T11:12:06;28.70;62.00
8408;DHT22;4241;48.452;9.216;2022-07-05T11:14:38;28.20;66.00
8408;DHT22;4241;48.452;9.216;2022-07-05T11:17:22;28.60;77.80
8408;DHT22;4241;48.452;9.216;2022-07-05T11:20:09;28.40;67.40
8408;DHT22;4241;48.452;9.216;2022-07-05T11:22:38;28.80;72.40
8408;DHT22;4241;48.452;9.216;2022-07-05T11:25:08;28.80;78.00
8408;DHT22;4241;48.452;9.216;2022-07-05T11:27:35;28.20;75.90
8408;DHT22;4241;48.452;9.216;2022-07-05T11:30:21;28.20;72.20
8408;DHT22;4241;48.452;9.216;2022-07-05T11:32:49;28.90;69.80
8408;DHT22;4241;48.452;9.216;2022-07-05T11:35:17;28.60;70.90
8408;DHT22;4241;48.452;9.216;2022-07-05T11:37:58;27.20;66.90
8408;DHT22;4241;48.452;9.216;2022-07-05T11:40:29;26.50;68.60
8408;DHT22;4241;48.452;9.216;2022-07-05T11:42:57;25.70;73.10
8408;DHT22;4241;48.452;9.216;2022-07-05T11:45:25;25.50;77.80
8408;DHT22;4241;48.452;9.216;2022-07-05T11:47:54;26.00;80.00
8408;DHT22;4241;48.452;9.216;2022-07-05T11:50:30;27.30;67.30
8408;DHT22;4241;48.452;9.216;2022-07-05T11:52:58;28.00;67.70
8408;DHT22;4241;48.452;9.216;2022-07-05T11:55:26;27.40;64.70
8408;DHT22;4241;48.452;9.216;2022-07-05T11:57:55;27.90;74.40
8408;DHT22;4241;48.452;9.216;2022-07-05T12:00:28;27.90;66.20
8408;DHT22;4241;48.452;9.216;2022-07-05T12:02:55;28.30;62.40
8408;DHT22;4241;48.452;9.216;2022-07-05T12:05:23;28.10;60.90
8408;DHT22;4241;48.452;9.216;2022-07-05T12:07:50;28.10;63.10
8408;DHT22;4241;48.452;9.216;2022-07-05T12:10:18;28.10;68.50
8408;DHT22;4241;48.452;9.216;2022-07-05T12:13:04;27.40;74.10
8408;DHT22;4241;48.452;9.216;2022-07-05T12:15:33;27.30;73.40
8408;DHT22;4241;48.452;9.216;2022-07-05T12:18:02;27.70;74.10
8408;DHT22;4241;48.452;9.216;2022-07-05T12:20:31;27.30;71.20
8408;DHT22;4241;48.452;9.216;2022-07-05T12:22:58;27.80;73.80
8408;DHT22;4241;48.452;9.216;2022-07-05T12:25:26;28.70;66.50
8408;DHT22;4241;48.452;9.216;2022-07-05T12:27:55;29.10;58.80
8408;DHT22;4241;48.452;9.216;2022-07-05T12:30:22;28.50;59.10
8408;DHT22;4241;48.452;9.216;2022-07-05T12:32:58;28.20;62.10
8408;DHT22;4241;48.452;9.216;2022-07-05T12:35:33;27.70;64.80
8408;DHT22;4241;48.452;9.216;2022-07-05T12:38:04;27.60;68.00
8408;DHT22;4241;48.452;9.216;2022-07-05T12:40:32;29.00;70.70
8408;DHT22;4241;48.452;9.216;2022-07-05T12:43:04;29.30;73.20
8408;DHT22;4241;48.452;9.216;2022-07-05T12:45:32;29.60;66.20
8408;DHT22;4241;48.452;9.216;2022-07-05T12:48:02;29.50;62.70
8408;DHT22;4241;48.452;9.216;2022-07-05T12:50:43;29.60;65.20
8408;DHT22;4241;48.452;9.216;2022-07-05T12:53:11;29.50;57.60
8408;DHT22;4241;48.452;9.216;2022-07-05T12:55:59;29.50;60.40
8408;DHT22;4241;48.452;9.216;2022-07-05T12:58:48;29.10;59.80
8408;DHT22;4241;48.452;9.216;2022-07-05T13:01:25;28.80;58.40
8408;DHT22;4241;48.452;9.216;2022-07-05T13:04:01;28.60;57.30
8408;DHT22;4241;48.452;9.216;2022-07-05T13:06:49;29.00;61.50
8408;DHT22;4241;48.452;9.216;2022-07-05T13:09:30;29.70;60.30
8408;DHT22;4241;48.452;9.216;2022-07-05T13:12:10;29.80;62.00
8408;DHT22;4241;48.452;9.216;2022-07-05T13:14:39;30.20;55.00
8408;DHT22;4241;48.452;9.216;2022-07-05T13:17:06;29.50;62.60
8408;DHT22;4241;48.452;9.216;2022-07-05T13:19:35;28.10;59.40
8408;DHT22;4241;48.452;9.216;2022-07-05T13:22:04;27.50;67.30
8408;DHT22;4241;48.452;9.216;2022-07-05T13:24:31;27.00;68.60
8408;DHT22;4241;48.452;9.216;2022-07-05T13:26:58;27.90;67.70
8408;DHT22;4241;48.452;9.216;2022-07-05T13:29:25;28.80;66.60
8408;DHT22;4241;48.452;9.216;2022-07-05T13:31:52;28.50;57.90
8408;DHT22;4241;48.452;9.216;2022-07-05T13:34:19;28.50;67.60
8408;DHT22;4241;48.452;9.216;2022-07-05T13:36:50;28.80;62.00
8408;DHT22;4241;48.452;9.216;2022-07-05T13:39:18;29.30;68.50
8408;DHT22;4241;48.452;9.216;2022-07-05T13:41:45;29.10;59.70
8408;DHT22;4241;48.452;9.216;2022-07-05T13:44:13;28.90;65.80
8408;DHT22;4241;48.452;9.216;2022-07-05T13:46:39;29.50;58.70
8408;DHT22;4241;48.452;9.216;2022-07-05T13:49:06;28.20;58.90
8408;DHT22;4241;48.452;9.216;2022-07-05T13:51:33;28.10;64.90
8408;DHT22;4241;48.452;9.216;2022-07-05T13:54:02;28.50;62.30
8408;DHT22;4241;48.452;9.216;2022-07-05T13:56:29;29.60;73.30
8408;DHT22;4241;48.452;9.216;2022-07-05T13:58:57;29.90;67.40
8408;DHT22;4241;48.452;9.216;2022-07-05T14:01:25;29.60;63.00
8408;DHT22;4241;48.452;9.216;2022-07-05T14:03:54;29.50;60.20
8408;DHT22;4241;48.452;9.216;2022-07-05T14:06:22;29.30;58.70
8408;DHT22;4241;48.452;9.216;2022-07-05T14:08:49;28.40;70.00
8408;DHT22;4241;48.452;9.216;2022-07-05T14:11:17;28.50;60.80
8408;DHT22;4241;48.452;9.216;2022-07-05T14:13:44;29.00;59.60
8408;DHT22;4241;48.452;9.216;2022-07-05T14:16:11;29.00;65.80
8408;DHT22;4241;48.452;9.216;2022-07-05T14:18:38;29.20;58.30
8408;DHT22;4241;48.452;9.216;2022-07-05T14:21:05;29.20;60.00
8408;DHT22;4241;48.452;9.216;2022-07-05T14:23:32;28.90;63.10
8408;DHT22;4241;48.452;9.216;2022-07-05T14:25:59;29.40;68.10
8408;DHT22;4241;48.452;9.216;2022-07-05T14:28:28;29.50;71.70
8408;DHT22;4241;48.452;9.216;2022-07-05T14:30:55;30.40;67.80
8408;DHT22;4241;48.452;9.216;2022-07-05T14:33:22;30.20;69.10
8408;DHT22;4241;48.452;9.216;2022-07-05T14:35:48;29.50;56.20
8408;DHT22;4241;48.452;9.216;2022-07-05T14:38:15;29.30;65.60
8408;DHT22;4241;48.452;9.216;2022-07-05T14:40:42;29.90;58.90
8408;DHT22;4241;48.452;9.216;2022-07-05T14:43:09;29.10;56.90
8408;DHT22;4241;48.452;9.216;2022-07-05T14:45:37;28.80;64.30
8408;DHT22;4241;48.452;9.216;2022-07-05T14:48:04;29.10;59.70
8408;DHT22;4241;48.452;9.216;2022-07-05T14:50:31;28.80;63.50
8408;DHT22;4241;48.452;9.216;2022-07-05T14:52:58;29.60;61.80
8408;DHT22;4241;48.452;9.216;2022-07-05T14:55:31;30.30;68.60
8408;DHT22;4241;48.452;9.216;2022-07-05T14:57:58;30.50;65.60
8408;DHT22;4241;48.452;9.216;2022-07-05T15:00:24;30.60;65.40
8408;DHT22;4241;48.452;9.216;2022-07-05T15:02:53;30.90;62.80
8408;DHT22;4241;48.452;9.216;2022-07-05T15:05:20;30.60;66.10
8408;DHT22;4241;48.452;9.216;2022-07-05T15:07:47;29.50;57.60
8408;DHT22;4241;48.452;9.216;2022-07-05T15:10:13;28.30;63.20
8408;DHT22;4241;48.452;9.216;2022-07-05T15:12:40;29.00;66.90
8408;DHT22;4241;48.452;9.216;2022-07-05T15:15:08;29.60;64.60
8408;DHT22;4241;48.452;9.216;2022-07-05T15:17:35;29.70;60.70
8408;DHT22;4241;48.452;9.216;2022-07-05T15:20:05;30.20;56.90
8408;DHT22;4241;48.452;9.216;2022-07-05T15:22:32;29.70;60.70
8408;DHT22;4241;48.452;9.216;2022-07-05T15:24:59;29.10;62.70
8408;DHT22;4241;48.452;9.216;2022-07-05T15:27:25;30.20;62.50
8408;DHT22;4241;48.452;9.216;2022-07-05T15:29:57;29.20;61.40
8408;DHT22;4241;48.452;9.216;2022-07-05T15:32:23;29.00;62.30
8408;DHT22;4241;48.452;9.216;2022-07-05T15:34:50;29.70;64.90
8408;DHT22;4241;48.452;9.216;2022-07-05T15:37:19;29.90;61.60
8408;DHT22;4241;48.452;9.216;2022-07-05T15:39:45;29.90;60.50
8408;DHT22;4241;48.452;9.216;2022-07-05T15:42:12;29.90;64.60
8408;DHT22;4241;48.452;9.216;2022-07-05T15:44:40;30.30;59.00
8408;DHT22;4241;48.452;9.216;2022-07-05T15:47:07;29.80;62.40
8408;DHT22;4241;48.452;9.216;2022-07-05T15:49:35;30.40;58.00
8408;DHT22;4241;48.452;9.216;2022-07-05T15:52:03;29.20;60.90
8408;DHT22;4241;48.452;9.216;2022-07-05T15:54:31;29.40;68.80
8408;DHT22;4241;48.452;9.216;2022-07-05T15:56:58;29.20;61.80
8408;DHT22;4241;48.452;9.216;2022-07-05T15:59:25;30.10;63.70
8408;DHT22;4241;48.452;9.216;2022-07-05T16:01:52;30.50;61.20
8408;DHT22;4241;48.452;9.216;2022-07-05T16:04:19;29.40;62.20
8408;DHT22;4241;48.452;9.216;2022-07-05T16:06:47;27.90;66.00
8408;DHT22;4241;48.452;9.216;2022-07-05T16:09:15;27.60;65.40
8408;DHT22;4241;48.452;9.216;2022-07-05T16:11:43;27.20;68.60
8408;DHT22;4241;48.452;9.216;2022-07-05T16:14:10;27.10;73.20
8408;DHT22;4241;48.452;9.216;2022-07-05T16:16:37;27.00;70.60